Adel, OR

12:46 AM PDT on September 03, 2014 (GMT -0700)
RAWS BARREL SPRINGS NV US | Change Station
CLOSE
Current Station
Personal Weather Station
Location: Fort Bidwell, CA
Elevation: 5730 ft
Nearby Weather Stations

Elev 5730 ft 41.91 °N, 119.94 °W | Updated 47 minutes ago

Clear
Clear
62 °F
Feels Like 62 °F
N
8
Wind Variable Wind from NW
Gusts 12.0 mph

Today
High -- | Low -- °F
--% Chance of Precip.
Yesterday
High -- | Low -- °F
Precip. -- in
6:26 AM 7:29 PM
First Quarter, 60% visible
Pressure 29.99 in
Visibility 10.0 miles
Clouds Clear
Dew Point 27 °F
Humidity 26%
Rainfall 0.00 in
Snow Depth Not available.
UV 0 out of 12
Pollen 5.40 out of 12
Air Quality Not available.
Flu Activity Not available.
METAR KLKV 030735Z AUTO 34003KT 10SM CLR 09/M03 A2999 RMK AO1

More Conditions Fewer Conditions

Pressure 29.99 in
Visibility 10.0 miles
Clouds Clear
Dew Point 27 °F
Humidity 26%
Rainfall 0.00 in
Snow Depth Not available.
UV 0 out of 12
Pollen 5.40 out of 12
Air Quality Not available.
Flu Activity Not available.
METAR KLKV 030735Z AUTO 34003KT 10SM CLR 09/M03 A2999 RMK AO1

More Conditions Fewer Conditions

10-Day Weather Forecast

Almanac

Astronomy

Sep. 03, 2014 Rise Set
Actual Time 6:26 AM PDT 7:29 PM PDT
Civil Twilight 5:57 AM PDT 7:57 PM PDT
Nautical Twilight 5:23 AM PDT 8:31 PM PDT
Astronomical Twilight 4:47 AM PDT 9:07 PM PDT
Moon 3:19 PM PDT 12:21 AM PDT
Length of Visible Light 13h 59m
Length of Day
13h 02m
Tomorrow will be 2m 44s shorter.
First Quarter, 60% of the Moon is Illuminated
Today
First Quarter
Sep 8
Full
Sep 15
Last Quarter
Sep 24
New
Oct 1
First Quarter

Today's Extremes

State Highs State Lows

Community

WunderPhotos

Upload Photos

1,749,899 photos uploaded!

Nearby

Snow Depth

Station Depth Elevation
Fish Creek 0 in 7900 ft
Silver Creek 0 in 5720 ft
Strawberry 0 in 5760 ft
Snow Mountain 0 in 6220 ft
Sevenmile Marsh 0 in 6200 ft

Earthquake Activity

City Distance Mag. Time & Date
No recent earthquake activity has been reported nearby.
Minimum magnitude displayed is 2.5.

Coastal Water Temperatures

Place Temperature
No Stations Reporting

Nearby Weather Stations